sensor_id;sensor_type;location;lat;lon;timestamp;temperature;humidity
60848;DHT22;46681;47.696;9.140;2023-12-28T00:01:40;9.00;61.30
60848;DHT22;46681;47.696;9.140;2023-12-28T00:04:05;9.00;61.40
60848;DHT22;46681;47.696;9.140;2023-12-28T00:06:31;9.00;61.20
60848;DHT22;46681;47.696;9.140;2023-12-28T00:08:56;9.00;61.20
60848;DHT22;46681;47.696;9.140;2023-12-28T00:11:22;9.00;61.10
60848;DHT22;46681;47.696;9.140;2023-12-28T00:13:47;9.00;61.10
60848;DHT22;46681;47.696;9.140;2023-12-28T00:16:13;9.00;61.00
60848;DHT22;46681;47.696;9.140;2023-12-28T00:18:38;9.00;60.90
60848;DHT22;46681;47.696;9.140;2023-12-28T00:21:06;9.00;60.90
60848;DHT22;46681;47.696;9.140;2023-12-28T00:23:32;9.00;60.90
60848;DHT22;46681;47.696;9.140;2023-12-28T00:25:57;9.00;60.90
60848;DHT22;46681;47.696;9.140;2023-12-28T00:28:23;8.90;60.80
60848;DHT22;46681;47.696;9.140;2023-12-28T00:30:48;8.90;60.80
60848;DHT22;46681;47.696;9.140;2023-12-28T00:33:14;8.90;60.80
60848;DHT22;46681;47.696;9.140;2023-12-28T00:35:39;8.90;60.90
60848;DHT22;46681;47.696;9.140;2023-12-28T00:38:05;8.90;60.90
60848;DHT22;46681;47.696;9.140;2023-12-28T00:40:31;8.90;60.70
60848;DHT22;46681;47.696;9.140;2023-12-28T00:42:56;8.90;60.80
60848;DHT22;46681;47.696;9.140;2023-12-28T00:45:22;8.90;60.80
60848;DHT22;46681;47.696;9.140;2023-12-28T00:47:49;8.90;60.80
60848;DHT22;46681;47.696;9.140;2023-12-28T00:50:15;9.00;60.70
60848;DHT22;46681;47.696;9.140;2023-12-28T00:52:41;8.90;60.70
60848;DHT22;46681;47.696;9.140;2023-12-28T00:55:07;8.90;60.60
60848;DHT22;46681;47.696;9.140;2023-12-28T00:57:32;9.00;60.70
60848;DHT22;46681;47.696;9.140;2023-12-28T00:59:58;9.00;60.80
60848;DHT22;46681;47.696;9.140;2023-12-28T01:02:23;9.00;60.80
60848;DHT22;46681;47.696;9.140;2023-12-28T01:04:49;9.00;60.70
60848;DHT22;46681;47.696;9.140;2023-12-28T01:07:14;8.90;60.80
60848;DHT22;46681;47.696;9.140;2023-12-28T01:09:40;9.00;60.90
60848;DHT22;46681;47.696;9.140;2023-12-28T01:12:06;9.00;61.00
60848;DHT22;46681;47.696;9.140;2023-12-28T01:14:34;9.00;61.00
60848;DHT22;46681;47.696;9.140;2023-12-28T01:17:00;9.00;61.00
60848;DHT22;46681;47.696;9.140;2023-12-28T01:19:25;9.00;61.00
60848;DHT22;46681;47.696;9.140;2023-12-28T01:21:51;9.00;61.00
60848;DHT22;46681;47.696;9.140;2023-12-28T01:24:16;9.00;61.10
60848;DHT22;46681;47.696;9.140;2023-12-28T01:26:42;9.00;61.10
60848;DHT22;46681;47.696;9.140;2023-12-28T01:29:08;9.10;61.20
60848;DHT22;46681;47.696;9.140;2023-12-28T01:31:33;9.10;60.90
60848;DHT22;46681;47.696;9.140;2023-12-28T01:34:01;9.20;60.90
60848;DHT22;46681;47.696;9.140;2023-12-28T01:36:26;9.20;60.90
60848;DHT22;46681;47.696;9.140;2023-12-28T01:38:52;9.10;60.80
60848;DHT22;46681;47.696;9.140;2023-12-28T01:41:18;9.20;60.90
60848;DHT22;46681;47.696;9.140;2023-12-28T01:43:44;9.20;60.80
60848;DHT22;46681;47.696;9.140;2023-12-28T01:46:17;9.20;60.80
60848;DHT22;46681;47.696;9.140;2023-12-28T01:48:45;9.20;60.60
60848;DHT22;46681;47.696;9.140;2023-12-28T01:51:12;9.20;60.70
60848;DHT22;46681;47.696;9.140;2023-12-28T01:53:40;9.30;60.50
60848;DHT22;46681;47.696;9.140;2023-12-28T01:56:06;9.30;60.40
60848;DHT22;46681;47.696;9.140;2023-12-28T01:58:33;9.20;60.40
60848;DHT22;46681;47.696;9.140;2023-12-28T02:01:03;9.20;60.40
60848;DHT22;46681;47.696;9.140;2023-12-28T02:03:31;9.20;60.40
60848;DHT22;46681;47.696;9.140;2023-12-28T02:05:59;9.30;60.30
60848;DHT22;46681;47.696;9.140;2023-12-28T02:08:26;9.20;60.40
60848;DHT22;46681;47.696;9.140;2023-12-28T02:10:52;9.30;60.50
60848;DHT22;46681;47.696;9.140;2023-12-28T02:13:18;9.30;60.30
60848;DHT22;46681;47.696;9.140;2023-12-28T02:15:49;9.30;60.30
60848;DHT22;46681;47.696;9.140;2023-12-28T02:18:23;9.30;60.30
60848;DHT22;46681;47.696;9.140;2023-12-28T02:20:53;9.30;60.20
60848;DHT22;46681;47.696;9.140;2023-12-28T02:23:19;9.30;60.40
60848;DHT22;46681;47.696;9.140;2023-12-28T02:25:47;9.30;60.30
60848;DHT22;46681;47.696;9.140;2023-12-28T02:28:15;9.30;60.70
60848;DHT22;46681;47.696;9.140;2023-12-28T02:30:41;9.30;60.30
60848;DHT22;46681;47.696;9.140;2023-12-28T02:33:24;9.30;60.20
60848;DHT22;46681;47.696;9.140;2023-12-28T02:36:04;9.30;60.20
60848;DHT22;46681;47.696;9.140;2023-12-28T02:38:37;9.30;60.00
60848;DHT22;46681;47.696;9.140;2023-12-28T02:41:07;9.30;59.90
60848;DHT22;46681;47.696;9.140;2023-12-28T02:43:36;9.30;60.00
60848;DHT22;46681;47.696;9.140;2023-12-28T02:46:01;9.30;59.80
60848;DHT22;46681;47.696;9.140;2023-12-28T02:48:27;9.30;59.70
60848;DHT22;46681;47.696;9.140;2023-12-28T02:50:54;9.30;59.70
60848;DHT22;46681;47.696;9.140;2023-12-28T02:53:20;9.30;59.70
60848;DHT22;46681;47.696;9.140;2023-12-28T02:55:47;9.30;59.60
60848;DHT22;46681;47.696;9.140;2023-12-28T02:58:12;9.30;59.50
60848;DHT22;46681;47.696;9.140;2023-12-28T03:00:40;9.30;59.50
60848;DHT22;46681;47.696;9.140;2023-12-28T03:03:06;9.20;59.20
60848;DHT22;46681;47.696;9.140;2023-12-28T03:05:31;9.20;59.50
60848;DHT22;46681;47.696;9.140;2023-12-28T03:07:56;9.20;59.60
60848;DHT22;46681;47.696;9.140;2023-12-28T03:10:22;9.10;59.40
60848;DHT22;46681;47.696;9.140;2023-12-28T03:12:47;9.10;59.40
60848;DHT22;46681;47.696;9.140;2023-12-28T03:15:13;9.10;59.50
60848;DHT22;46681;47.696;9.140;2023-12-28T03:17:39;9.10;59.40
60848;DHT22;46681;47.696;9.140;2023-12-28T03:20:05;9.10;59.20
60848;DHT22;46681;47.696;9.140;2023-12-28T03:22:31;9.10;59.20
60848;DHT22;46681;47.696;9.140;2023-12-28T03:24:56;9.10;59.00
60848;DHT22;46681;47.696;9.140;2023-12-28T03:27:23;9.10;59.10
60848;DHT22;46681;47.696;9.140;2023-12-28T03:29:49;9.10;59.10
60848;DHT22;46681;47.696;9.140;2023-12-28T03:32:14;9.10;59.00
60848;DHT22;46681;47.696;9.140;2023-12-28T03:34:40;9.10;58.90
60848;DHT22;46681;47.696;9.140;2023-12-28T03:37:05;9.10;58.80
60848;DHT22;46681;47.696;9.140;2023-12-28T03:39:31;9.10;58.80
60848;DHT22;46681;47.696;9.140;2023-12-28T03:41:57;9.10;58.70
60848;DHT22;46681;47.696;9.140;2023-12-28T03:44:22;9.10;58.80
60848;DHT22;46681;47.696;9.140;2023-12-28T03:46:51;9.10;58.60
60848;DHT22;46681;47.696;9.140;2023-12-28T03:49:17;9.00;58.80
60848;DHT22;46681;47.696;9.140;2023-12-28T03:51:43;9.00;58.70
60848;DHT22;46681;47.696;9.140;2023-12-28T03:54:08;9.00;58.80
60848;DHT22;46681;47.696;9.140;2023-12-28T03:56:35;9.00;58.70
60848;DHT22;46681;47.696;9.140;2023-12-28T03:59:00;9.00;58.60
60848;DHT22;46681;47.696;9.140;2023-12-28T04:01:26;9.00;58.60
60848;DHT22;46681;47.696;9.140;2023-12-28T04:03:52;8.90;58.60
60848;DHT22;46681;47.696;9.140;2023-12-28T04:06:17;8.90;58.60
60848;DHT22;46681;47.696;9.140;2023-12-28T04:08:43;8.90;58.60
60848;DHT22;46681;47.696;9.140;2023-12-28T04:11:08;8.90;58.50
60848;DHT22;46681;47.696;9.140;2023-12-28T04:13:35;8.90;58.50
60848;DHT22;46681;47.696;9.140;2023-12-28T04:16:00;8.90;58.60
60848;DHT22;46681;47.696;9.140;2023-12-28T04:18:26;8.90;58.70
60848;DHT22;46681;47.696;9.140;2023-12-28T04:20:52;8.90;58.70
60848;DHT22;46681;47.696;9.140;2023-12-28T04:23:17;8.90;58.60
60848;DHT22;46681;47.696;9.140;2023-12-28T04:25:43;8.90;58.70
60848;DHT22;46681;47.696;9.140;2023-12-28T04:28:08;8.90;58.50
60848;DHT22;46681;47.696;9.140;2023-12-28T04:30:34;8.90;58.60
60848;DHT22;46681;47.696;9.140;2023-12-28T04:33:03;8.90;58.60
60848;DHT22;46681;47.696;9.140;2023-12-28T04:35:28;8.90;58.60
60848;DHT22;46681;47.696;9.140;2023-12-28T04:37:54;8.90;58.50
60848;DHT22;46681;47.696;9.140;2023-12-28T04:40:20;8.90;58.50
60848;DHT22;46681;47.696;9.140;2023-12-28T04:42:45;8.90;58.60
60848;DHT22;46681;47.696;9.140;2023-12-28T04:45:11;8.90;58.50
60848;DHT22;46681;47.696;9.140;2023-12-28T04:47:37;9.00;58.50
60848;DHT22;46681;47.696;9.140;2023-12-28T04:50:06;9.00;58.50
60848;DHT22;46681;47.696;9.140;2023-12-28T04:52:32;9.00;58.50
60848;DHT22;46681;47.696;9.140;2023-12-28T04:54:57;9.00;58.50
60848;DHT22;46681;47.696;9.140;2023-12-28T04:57:23;8.90;58.50
60848;DHT22;46681;47.696;9.140;2023-12-28T04:59:49;8.90;58.50
60848;DHT22;46681;47.696;9.140;2023-12-28T05:02:14;9.00;58.50
60848;DHT22;46681;47.696;9.140;2023-12-28T05:04:40;8.90;58.50
60848;DHT22;46681;47.696;9.140;2023-12-28T05:07:05;9.00;58.70
60848;DHT22;46681;47.696;9.140;2023-12-28T05:09:31;9.00;58.60
60848;DHT22;46681;47.696;9.140;2023-12-28T05:11:56;9.10;58.50
60848;DHT22;46681;47.696;9.140;2023-12-28T05:14:22;9.20;58.50
60848;DHT22;46681;47.696;9.140;2023-12-28T05:16:47;9.30;58.10
60848;DHT22;46681;47.696;9.140;2023-12-28T05:19:13;9.40;57.80
60848;DHT22;46681;47.696;9.140;2023-12-28T05:21:38;9.60;57.50
60848;DHT22;46681;47.696;9.140;2023-12-28T05:24:04;9.70;57.10
60848;DHT22;46681;47.696;9.140;2023-12-28T05:26:29;9.80;56.90
60848;DHT22;46681;47.696;9.140;2023-12-28T05:28:55;9.90;56.70
60848;DHT22;46681;47.696;9.140;2023-12-28T05:31:24;9.90;56.60
60848;DHT22;46681;47.696;9.140;2023-12-28T05:33:49;10.00;56.30
60848;DHT22;46681;47.696;9.140;2023-12-28T05:36:15;10.10;56.10
60848;DHT22;46681;47.696;9.140;2023-12-28T05:38:40;10.20;56.00
60848;DHT22;46681;47.696;9.140;2023-12-28T05:41:06;10.20;55.80
60848;DHT22;46681;47.696;9.140;2023-12-28T05:43:31;10.30;55.70
60848;DHT22;46681;47.696;9.140;2023-12-28T05:45:57;10.30;55.60
60848;DHT22;46681;47.696;9.140;2023-12-28T05:48:22;10.30;55.40
60848;DHT22;46681;47.696;9.140;2023-12-28T05:50:48;10.40;55.30
60848;DHT22;46681;47.696;9.140;2023-12-28T05:53:13;10.40;55.10
60848;DHT22;46681;47.696;9.140;2023-12-28T05:55:40;10.40;55.20
60848;DHT22;46681;47.696;9.140;2023-12-28T05:58:05;10.40;55.10
60848;DHT22;46681;47.696;9.140;2023-12-28T06:00:31;10.50;55.00
60848;DHT22;46681;47.696;9.140;2023-12-28T06:02:56;10.50;54.90
60848;DHT22;46681;47.696;9.140;2023-12-28T06:05:22;10.50;54.80
60848;DHT22;46681;47.696;9.140;2023-12-28T06:07:49;10.50;54.70
60848;DHT22;46681;47.696;9.140;2023-12-28T06:10:15;10.50;54.60
60848;DHT22;46681;47.696;9.140;2023-12-28T06:12:41;10.60;54.60
60848;DHT22;46681;47.696;9.140;2023-12-28T06:15:07;10.60;54.40
60848;DHT22;46681;47.696;9.140;2023-12-28T06:17:32;10.60;54.40
60848;DHT22;46681;47.696;9.140;2023-12-28T06:19:58;10.70;54.40
60848;DHT22;46681;47.696;9.140;2023-12-28T06:22:23;10.70;54.20
60848;DHT22;46681;47.696;9.140;2023-12-28T06:24:49;10.70;54.10
60848;DHT22;46681;47.696;9.140;2023-12-28T06:27:15;10.70;53.90
60848;DHT22;46681;47.696;9.140;2023-12-28T06:29:42;10.70;53.90
60848;DHT22;46681;47.696;9.140;2023-12-28T06:32:08;10.70;53.90
60848;DHT22;46681;47.696;9.140;2023-12-28T06:34:33;10.70;53.80
60848;DHT22;46681;47.696;9.140;2023-12-28T06:37:00;10.70;53.70
60848;DHT22;46681;47.696;9.140;2023-12-28T06:39:26;10.70;53.70
60848;DHT22;46681;47.696;9.140;2023-12-28T06:41:51;10.70;53.60
60848;DHT22;46681;47.696;9.140;2023-12-28T06:44:17;10.80;53.60
60848;DHT22;46681;47.696;9.140;2023-12-28T06:46:44;10.80;53.50
60848;DHT22;46681;47.696;9.140;2023-12-28T06:49:09;10.80;53.40
60848;DHT22;46681;47.696;9.140;2023-12-28T06:51:35;10.80;53.40
60848;DHT22;46681;47.696;9.140;2023-12-28T06:54:04;10.70;53.30
60848;DHT22;46681;47.696;9.140;2023-12-28T06:56:33;10.80;53.40
60848;DHT22;46681;47.696;9.140;2023-12-28T06:58:59;10.80;53.30
60848;DHT22;46681;47.696;9.140;2023-12-28T07:01:27;10.80;53.30
60848;DHT22;46681;47.696;9.140;2023-12-28T07:03:52;10.80;53.10
60848;DHT22;46681;47.696;9.140;2023-12-28T07:06:18;10.80;53.40
60848;DHT22;46681;47.696;9.140;2023-12-28T07:08:45;10.80;53.00
60848;DHT22;46681;47.696;9.140;2023-12-28T07:11:15;10.80;52.90
60848;DHT22;46681;47.696;9.140;2023-12-28T07:13:53;10.80;52.90
60848;DHT22;46681;47.696;9.140;2023-12-28T07:16:24;10.90;53.30
60848;DHT22;46681;47.696;9.140;2023-12-28T07:18:50;10.90;53.00
60848;DHT22;46681;47.696;9.140;2023-12-28T07:21:20;10.90;52.80
60848;DHT22;46681;47.696;9.140;2023-12-28T07:23:46;10.90;52.70
60848;DHT22;46681;47.696;9.140;2023-12-28T07:26:14;10.90;52.50
60848;DHT22;46681;47.696;9.140;2023-12-28T07:28:39;10.90;52.50
60848;DHT22;46681;47.696;9.140;2023-12-28T07:31:05;10.90;52.40
60848;DHT22;46681;47.696;9.140;2023-12-28T07:33:30;10.90;52.40
60848;DHT22;46681;47.696;9.140;2023-12-28T07:35:59;10.90;52.40
60848;DHT22;46681;47.696;9.140;2023-12-28T07:38:28;10.90;52.30
60848;DHT22;46681;47.696;9.140;2023-12-28T07:40:59;10.90;52.30
60848;DHT22;46681;47.696;9.140;2023-12-28T07:43:24;10.90;52.20
60848;DHT22;46681;47.696;9.140;2023-12-28T07:45:50;10.90;52.20
60848;DHT22;46681;47.696;9.140;2023-12-28T07:48:15;10.90;52.30
60848;DHT22;46681;47.696;9.140;2023-12-28T07:50:41;11.00;52.20
60848;DHT22;46681;47.696;9.140;2023-12-28T07:53:09;11.00;52.20
60848;DHT22;46681;47.696;9.140;2023-12-28T07:55:35;11.00;52.30
60848;DHT22;46681;47.696;9.140;2023-12-28T07:58:00;11.00;52.20
60848;DHT22;46681;47.696;9.140;2023-12-28T08:00:26;11.10;52.30
60848;DHT22;46681;47.696;9.140;2023-12-28T08:02:51;11.10;52.30
60848;DHT22;46681;47.696;9.140;2023-12-28T08:05:17;11.10;52.30
60848;DHT22;46681;47.696;9.140;2023-12-28T08:07:42;11.10;52.20
60848;DHT22;46681;47.696;9.140;2023-12-28T08:10:10;11.10;52.20
60848;DHT22;46681;47.696;9.140;2023-12-28T08:12:36;11.10;52.30
60848;DHT22;46681;47.696;9.140;2023-12-28T08:15:04;11.20;52.30
60848;DHT22;46681;47.696;9.140;2023-12-28T08:17:33;11.20;52.20
60848;DHT22;46681;47.696;9.140;2023-12-28T08:20:05;11.20;52.20
60848;DHT22;46681;47.696;9.140;2023-12-28T08:22:31;11.20;52.50
60848;DHT22;46681;47.696;9.140;2023-12-28T08:25:02;11.20;52.20
60848;DHT22;46681;47.696;9.140;2023-12-28T08:27:28;11.30;52.30
60848;DHT22;46681;47.696;9.140;2023-12-28T08:29:56;11.30;52.50
60848;DHT22;46681;47.696;9.140;2023-12-28T08:32:24;11.30;52.40
60848;DHT22;46681;47.696;9.140;2023-12-28T08:34:50;11.40;52.50
60848;DHT22;46681;47.696;9.140;2023-12-28T08:37:15;11.40;52.50
60848;DHT22;46681;47.696;9.140;2023-12-28T08:39:41;11.40;52.20
60848;DHT22;46681;47.696;9.140;2023-12-28T08:42:15;11.50;52.30
60848;DHT22;46681;47.696;9.140;2023-12-28T08:44:42;11.50;52.30
60848;DHT22;46681;47.696;9.140;2023-12-28T08:47:08;11.50;52.20
60848;DHT22;46681;47.696;9.140;2023-12-28T08:49:33;11.60;52.20
60848;DHT22;46681;47.696;9.140;2023-12-28T08:52:03;11.60;52.30
60848;DHT22;46681;47.696;9.140;2023-12-28T08:54:38;11.70;52.30
60848;DHT22;46681;47.696;9.140;2023-12-28T08:57:05;11.70;52.20
60848;DHT22;46681;47.696;9.140;2023-12-28T08:59:30;11.70;52.20
60848;DHT22;46681;47.696;9.140;2023-12-28T09:02:02;11.70;52.20
60848;DHT22;46681;47.696;9.140;2023-12-28T09:04:30;11.70;52.20
60848;DHT22;46681;47.696;9.140;2023-12-28T09:06:55;11.70;52.20
60848;DHT22;46681;47.696;9.140;2023-12-28T09:09:21;11.80;52.40
60848;DHT22;46681;47.696;9.140;2023-12-28T09:11:49;11.80;52.30
60848;DHT22;46681;47.696;9.140;2023-12-28T09:14:19;11.80;52.20
60848;DHT22;46681;47.696;9.140;2023-12-28T09:16:47;11.80;52.30
60848;DHT22;46681;47.696;9.140;2023-12-28T09:19:13;11.90;52.10
60848;DHT22;46681;47.696;9.140;2023-12-28T09:21:38;11.80;52.40
60848;DHT22;46681;47.696;9.140;2023-12-28T09:24:04;11.90;52.50
60848;DHT22;46681;47.696;9.140;2023-12-28T09:26:32;11.90;52.40
60848;DHT22;46681;47.696;9.140;2023-12-28T09:28:57;11.90;52.30
60848;DHT22;46681;47.696;9.140;2023-12-28T09:31:23;11.90;52.30
60848;DHT22;46681;47.696;9.140;2023-12-28T09:33:48;11.90;52.30
60848;DHT22;46681;47.696;9.140;2023-12-28T09:36:14;12.00;52.40
60848;DHT22;46681;47.696;9.140;2023-12-28T09:38:42;12.00;52.20
60848;DHT22;46681;47.696;9.140;2023-12-28T09:41:26;12.00;52.30
60848;DHT22;46681;47.696;9.140;2023-12-28T09:44:08;12.00;52.30
60848;DHT22;46681;47.696;9.140;2023-12-28T09:46:41;12.00;52.30
60848;DHT22;46681;47.696;9.140;2023-12-28T09:49:16;12.00;52.20
60848;DHT22;46681;47.696;9.140;2023-12-28T09:51:43;12.10;52.60
60848;DHT22;46681;47.696;9.140;2023-12-28T09:54:18;12.00;52.30
60848;DHT22;46681;47.696;9.140;2023-12-28T09:56:48;12.10;52.30
60848;DHT22;46681;47.696;9.140;2023-12-28T09:59:21;12.10;52.20
60848;DHT22;46681;47.696;9.140;2023-12-28T10:01:52;12.20;52.20
60848;DHT22;46681;47.696;9.140;2023-12-28T10:04:21;12.20;52.10
60848;DHT22;46681;47.696;9.140;2023-12-28T10:06:50;12.20;52.10
60848;DHT22;46681;47.696;9.140;2023-12-28T10:09:15;12.30;51.90
60848;DHT22;46681;47.696;9.140;2023-12-28T10:11:44;12.30;52.00
60848;DHT22;46681;47.696;9.140;2023-12-28T10:14:09;12.30;52.10
60848;DHT22;46681;47.696;9.140;2023-12-28T10:16:35;12.30;52.10
60848;DHT22;46681;47.696;9.140;2023-12-28T10:19:01;12.30;52.10
60848;DHT22;46681;47.696;9.140;2023-12-28T10:21:27;12.30;52.20
60848;DHT22;46681;47.696;9.140;2023-12-28T10:23:57;12.20;52.20
60848;DHT22;46681;47.696;9.140;2023-12-28T10:26:22;12.20;52.20
60848;DHT22;46681;47.696;9.140;2023-12-28T10:28:49;12.20;52.30
60848;DHT22;46681;47.696;9.140;2023-12-28T10:31:15;12.20;52.30
60848;DHT22;46681;47.696;9.140;2023-12-28T10:33:43;12.20;52.40
60848;DHT22;46681;47.696;9.140;2023-12-28T10:36:16;12.30;52.40
60848;DHT22;46681;47.696;9.140;2023-12-28T10:38:47;12.20;52.40
60848;DHT22;46681;47.696;9.140;2023-12-28T10:41:16;12.20;52.40
60848;DHT22;46681;47.696;9.140;2023-12-28T10:44:06;12.30;52.50
60848;DHT22;46681;47.696;9.140;2023-12-28T10:46:34;12.20;52.30
60848;DHT22;46681;47.696;9.140;2023-12-28T10:49:12;12.20;52.50
60848;DHT22;46681;47.696;9.140;2023-12-28T10:51:43;12.30;52.50
60848;DHT22;46681;47.696;9.140;2023-12-28T10:56:59;12.40;52.80
60848;DHT22;46681;47.696;9.140;2023-12-28T11:02:38;12.40;52.90
60848;DHT22;46681;47.696;9.140;2023-12-28T11:05:19;12.40;52.80
60848;DHT22;46681;47.696;9.140;2023-12-28T11:07:57;12.40;52.80
60848;DHT22;46681;47.696;9.140;2023-12-28T11:10:31;12.40;52.80
60848;DHT22;46681;47.696;9.140;2023-12-28T11:12:58;12.40;52.70
60848;DHT22;46681;47.696;9.140;2023-12-28T11:15:26;12.40;52.70
60848;DHT22;46681;47.696;9.140;2023-12-28T11:17:52;12.40;52.80
60848;DHT22;46681;47.696;9.140;2023-12-28T11:20:20;12.40;52.80
60848;DHT22;46681;47.696;9.140;2023-12-28T11:22:46;12.40;52.80
60848;DHT22;46681;47.696;9.140;2023-12-28T11:25:16;12.40;52.80
60848;DHT22;46681;47.696;9.140;2023-12-28T11:27:42;12.40;52.80
60848;DHT22;46681;47.696;9.140;2023-12-28T11:30:11;12.40;52.80
60848;DHT22;46681;47.696;9.140;2023-12-28T11:32:40;12.40;53.40
60848;DHT22;46681;47.696;9.140;2023-12-28T11:35:15;12.40;52.40
60848;DHT22;46681;47.696;9.140;2023-12-28T11:37:48;12.40;52.80
60848;DHT22;46681;47.696;9.140;2023-12-28T11:40:17;12.40;52.40
60848;DHT22;46681;47.696;9.140;2023-12-28T11:42:54;12.40;52.50
60848;DHT22;46681;47.696;9.140;2023-12-28T11:45:22;12.40;52.50
60848;DHT22;46681;47.696;9.140;2023-12-28T11:48:02;12.40;52.60
60848;DHT22;46681;47.696;9.140;2023-12-28T11:50:27;12.40;52.70
60848;DHT22;46681;47.696;9.140;2023-12-28T11:52:53;12.40;52.70
60848;DHT22;46681;47.696;9.140;2023-12-28T11:55:23;12.40;52.70
60848;DHT22;46681;47.696;9.140;2023-12-28T11:57:50;12.50;52.80
60848;DHT22;46681;47.696;9.140;2023-12-28T12:00:22;12.50;52.70
60848;DHT22;46681;47.696;9.140;2023-12-28T12:02:49;12.50;52.70
60848;DHT22;46681;47.696;9.140;2023-12-28T12:05:21;12.70;54.70
60848;DHT22;46681;47.696;9.140;2023-12-28T12:07:50;12.90;54.00
60848;DHT22;46681;47.696;9.140;2023-12-28T12:10:16;12.90;53.50
60848;DHT22;46681;47.696;9.140;2023-12-28T12:12:44;12.90;53.30
60848;DHT22;46681;47.696;9.140;2023-12-28T12:15:12;12.90;53.20
60848;DHT22;46681;47.696;9.140;2023-12-28T12:17:38;12.80;53.20
60848;DHT22;46681;47.696;9.140;2023-12-28T12:20:04;12.80;53.20
60848;DHT22;46681;47.696;9.140;2023-12-28T12:22:34;12.80;53.20
60848;DHT22;46681;47.696;9.140;2023-12-28T12:25:04;12.80;53.20
60848;DHT22;46681;47.696;9.140;2023-12-28T12:27:38;12.80;53.20
60848;DHT22;46681;47.696;9.140;2023-12-28T12:30:04;12.80;53.20
60848;DHT22;46681;47.696;9.140;2023-12-28T12:32:29;12.80;53.20
60848;DHT22;46681;47.696;9.140;2023-12-28T12:34:56;12.80;53.20
60848;DHT22;46681;47.696;9.140;2023-12-28T12:37:24;12.80;53.20
60848;DHT22;46681;47.696;9.140;2023-12-28T12:39:55;12.70;53.30
60848;DHT22;46681;47.696;9.140;2023-12-28T12:42:21;12.70;53.30
60848;DHT22;46681;47.696;9.140;2023-12-28T12:44:46;12.70;53.40
60848;DHT22;46681;47.696;9.140;2023-12-28T12:47:13;12.70;53.40
60848;DHT22;46681;47.696;9.140;2023-12-28T12:49:39;12.70;53.50
60848;DHT22;46681;47.696;9.140;2023-12-28T12:52:08;12.70;53.50
60848;DHT22;46681;47.696;9.140;2023-12-28T12:54:35;12.60;53.50
60848;DHT22;46681;47.696;9.140;2023-12-28T12:57:06;12.70;53.60
60848;DHT22;46681;47.696;9.140;2023-12-28T12:59:35;12.60;54.00
60848;DHT22;46681;47.696;9.140;2023-12-28T13:02:01;12.60;53.60
60848;DHT22;46681;47.696;9.140;2023-12-28T13:04:33;12.60;53.70
60848;DHT22;46681;47.696;9.140;2023-12-28T13:06:59;12.60;53.80
60848;DHT22;46681;47.696;9.140;2023-12-28T13:09:29;12.60;53.80
60848;DHT22;46681;47.696;9.140;2023-12-28T13:11:59;12.60;53.90
60848;DHT22;46681;47.696;9.140;2023-12-28T13:14:26;12.50;53.90
60848;DHT22;46681;47.696;9.140;2023-12-28T13:16:51;12.50;54.00
60848;DHT22;46681;47.696;9.140;2023-12-28T13:19:17;12.50;54.00
60848;DHT22;46681;47.696;9.140;2023-12-28T13:21:43;12.50;54.10
60848;DHT22;46681;47.696;9.140;2023-12-28T13:24:12;12.50;54.10
60848;DHT22;46681;47.696;9.140;2023-12-28T13:26:42;12.50;54.10
60848;DHT22;46681;47.696;9.140;2023-12-28T13:29:14;12.50;54.20
60848;DHT22;46681;47.696;9.140;2023-12-28T13:31:43;12.50;54.20
60848;DHT22;46681;47.696;9.140;2023-12-28T13:34:12;12.50;54.30
60848;DHT22;46681;47.696;9.140;2023-12-28T13:36:39;12.50;54.30
60848;DHT22;46681;47.696;9.140;2023-12-28T13:39:05;12.50;54.10
60848;DHT22;46681;47.696;9.140;2023-12-28T13:41:31;12.50;54.00
60848;DHT22;46681;47.696;9.140;2023-12-28T13:43:56;12.40;53.90
60848;DHT22;46681;47.696;9.140;2023-12-28T13:46:24;12.40;54.00
60848;DHT22;46681;47.696;9.140;2023-12-28T13:48:53;12.30;54.00
60848;DHT22;46681;47.696;9.140;2023-12-28T13:51:20;12.30;54.00
60848;DHT22;46681;47.696;9.140;2023-12-28T13:53:46;12.30;54.00
60848;DHT22;46681;47.696;9.140;2023-12-28T13:56:18;12.20;54.10
60848;DHT22;46681;47.696;9.140;2023-12-28T13:58:50;12.20;54.10
60848;DHT22;46681;47.696;9.140;2023-12-28T14:01:19;12.20;54.20
60848;DHT22;46681;47.696;9.140;2023-12-28T14:03:50;12.20;54.30
60848;DHT22;46681;47.696;9.140;2023-12-28T14:06:15;12.20;54.30
60848;DHT22;46681;47.696;9.140;2023-12-28T14:08:41;12.20;54.30
60848;DHT22;46681;47.696;9.140;2023-12-28T14:11:07;12.20;54.40
60848;DHT22;46681;47.696;9.140;2023-12-28T14:13:40;12.20;54.40
60848;DHT22;46681;47.696;9.140;2023-12-28T14:16:11;12.30;54.30
60848;DHT22;46681;47.696;9.140;2023-12-28T14:18:37;12.30;54.30
60848;DHT22;46681;47.696;9.140;2023-12-28T14:21:03;12.30;54.40
60848;DHT22;46681;47.696;9.140;2023-12-28T14:23:29;12.30;54.40
60848;DHT22;46681;47.696;9.140;2023-12-28T14:25:55;12.30;54.50
60848;DHT22;46681;47.696;9.140;2023-12-28T14:28:33;12.30;54.40
60848;DHT22;46681;47.696;9.140;2023-12-28T14:30:59;12.30;54.40
60848;DHT22;46681;47.696;9.140;2023-12-28T14:33:29;12.30;54.40
60848;DHT22;46681;47.696;9.140;2023-12-28T14:35:55;12.30;54.40
60848;DHT22;46681;47.696;9.140;2023-12-28T14:38:28;12.60;56.00
60848;DHT22;46681;47.696;9.140;2023-12-28T14:40:54;12.90;55.10
60848;DHT22;46681;47.696;9.140;2023-12-28T14:43:20;12.90;54.70
60848;DHT22;46681;47.696;9.140;2023-12-28T14:45:47;12.80;54.60
60848;DHT22;46681;47.696;9.140;2023-12-28T14:48:15;12.80;54.60
60848;DHT22;46681;47.696;9.140;2023-12-28T14:50:41;12.70;54.60
60848;DHT22;46681;47.696;9.140;2023-12-28T14:53:09;12.60;54.50
60848;DHT22;46681;47.696;9.140;2023-12-28T14:55:34;12.60;55.30
60848;DHT22;46681;47.696;9.140;2023-12-28T14:58:00;12.70;54.80
60848;DHT22;46681;47.696;9.140;2023-12-28T15:00:26;12.70;54.70
60848;DHT22;46681;47.696;9.140;2023-12-28T15:02:53;12.70;55.10
60848;DHT22;46681;47.696;9.140;2023-12-28T15:05:18;13.20;56.30
60848;DHT22;46681;47.696;9.140;2023-12-28T15:07:49;13.30;55.40
60848;DHT22;46681;47.696;9.140;2023-12-28T15:10:15;13.20;54.70
60848;DHT22;46681;47.696;9.140;2023-12-28T15:12:44;13.10;54.60
60848;DHT22;46681;47.696;9.140;2023-12-28T15:15:12;13.00;54.60
60848;DHT22;46681;47.696;9.140;2023-12-28T15:17:40;12.90;54.70
60848;DHT22;46681;47.696;9.140;2023-12-28T15:20:08;12.90;54.70
60848;DHT22;46681;47.696;9.140;2023-12-28T15:22:37;12.80;54.80
60848;DHT22;46681;47.696;9.140;2023-12-28T15:25:15;12.70;54.80
60848;DHT22;46681;47.696;9.140;2023-12-28T15:27:42;12.70;54.90
60848;DHT22;46681;47.696;9.140;2023-12-28T15:30:11;12.60;54.90
60848;DHT22;46681;47.696;9.140;2023-12-28T15:32:39;12.60;55.00
60848;DHT22;46681;47.696;9.140;2023-12-28T15:35:14;12.50;55.00
60848;DHT22;46681;47.696;9.140;2023-12-28T15:37:47;12.50;55.10
60848;DHT22;46681;47.696;9.140;2023-12-28T15:40:22;12.50;55.10
60848;DHT22;46681;47.696;9.140;2023-12-28T15:42:51;12.50;55.10
60848;DHT22;46681;47.696;9.140;2023-12-28T15:45:19;12.50;55.10